Time;durP1;ratioP1;P1;durP2;ratioP2;P2;SDS_P1;SDS_P2;PMS_P1;PMS_P2;Temp;Humidity;BMP_temperature;BMP_pressure;BME280_temperature;BME280_humidity;BME280_pressure;Samples;Min_cycle;Max_cycle;Signal;HPM_P1;HPM_P2
2021/04/22 00:01:26;;;;;;;9.00;2.47;;;7.50;63.10;;;;;;4919248;29;20028;-85
2021/04/22 00:03:52;;;;;;;12.75;2.38;;;7.50;63.30;;;;;;4917780;29;20119;-86
2021/04/22 00:06:18;;;;;;;12.77;2.63;;;7.40;63.60;;;;;;4919308;29;20122;-86
2021/04/22 00:08:44;;;;;;;13.45;2.40;;;7.40;64.00;;;;;;4915440;29;20058;-85
2021/04/22 00:11:09;;;;;;;16.73;2.88;;;7.40;64.10;;;;;;4898577;29;20486;-86
2021/04/22 00:13:35;;;;;;;22.52;3.10;;;7.30;64.20;;;;;;4908138;29;20060;-86
2021/04/22 00:16:01;;;;;;;19.90;2.97;;;7.30;64.30;;;;;;4900113;29;20032;-86
2021/04/22 00:18:28;;;;;;;15.05;2.70;;;7.20;64.40;;;;;;4883131;29;20064;-86
2021/04/22 00:20:54;;;;;;;13.73;2.88;;;7.20;64.70;;;;;;4900140;29;20028;-85
2021/04/22 00:23:19;;;;;;;16.85;3.00;;;7.10;64.80;;;;;;4883091;29;20040;-85
2021/04/22 00:25:45;;;;;;;16.63;2.88;;;7.10;65.10;;;;;;4900027;29;20091;-85
2021/04/22 00:28:12;;;;;;;17.27;2.92;;;7.10;65.20;;;;;;4908358;29;20126;-85
2021/04/22 00:30:39;;;;;;;22.80;3.10;;;7.00;65.30;;;;;;4917659;29;20040;-85
2021/04/22 00:33:07;;;;;;;18.48;2.85;;;7.00;65.40;;;;;;4918512;29;20167;-85
2021/04/22 00:35:33;;;;;;;17.33;3.00;;;7.00;65.50;;;;;;4917761;29;20020;-83
2021/04/22 00:37:59;;;;;;;18.08;2.90;;;7.00;65.50;;;;;;4918536;29;20020;-85
2021/04/22 00:40:27;;;;;;;22.40;3.25;;;7.00;65.50;;;;;;4918606;29;20478;-85
2021/04/22 00:42:53;;;;;;;16.15;2.65;;;6.90;65.40;;;;;;4917332;29;20123;-85
2021/04/22 00:45:20;;;;;;;13.75;3.10;;;6.90;65.40;;;;;;4917317;29;20042;-86
2021/04/22 00:47:45;;;;;;;23.02;3.10;;;6.90;65.50;;;;;;4918516;29;20032;-85
2021/04/22 00:50:16;;;;;;;20.98;2.97;;;6.80;65.60;;;;;;4918391;29;20209;-85
2021/04/22 00:52:42;;;;;;;16.50;2.80;;;6.80;65.60;;;;;;4912197;29;20108;-85
2021/04/22 00:55:08;;;;;;;18.23;3.30;;;6.80;65.70;;;;;;4898175;29;20036;-85
2021/04/22 00:57:35;;;;;;;17.85;3.15;;;6.80;65.80;;;;;;4899412;29;20474;-85
2021/04/22 01:00:00;;;;;;;18.52;2.67;;;6.70;65.90;;;;;;4899680;29;20036;-86
2021/04/22 01:02:26;;;;;;;19.73;2.90;;;6.70;66.20;;;;;;4898069;29;20158;-85
2021/04/22 01:04:52;;;;;;;29.83;3.28;;;6.70;66.30;;;;;;4897963;29;20036;-86
2021/04/22 01:07:18;;;;;;;12.50;2.58;;;6.70;66.30;;;;;;4898901;29;20045;-86
2021/04/22 01:09:44;;;;;;;19.40;2.80;;;6.60;66.30;;;;;;4909234;29;20072;-86
2021/04/22 01:12:11;;;;;;;23.38;3.65;;;6.60;67.00;;;;;;4917876;29;20036;-85
2021/04/22 01:14:37;;;;;;;21.67;3.13;;;6.50;66.40;;;;;;4916823;29;20441;-85
2021/04/22 01:17:03;;;;;;;16.35;2.65;;;6.50;66.40;;;;;;4917713;29;20043;-85
2021/04/22 01:19:29;;;;;;;16.63;3.33;;;6.50;66.50;;;;;;4909111;29;20063;-85
2021/04/22 01:21:55;;;;;;;19.20;2.88;;;6.50;66.50;;;;;;4898292;29;20054;-85
2021/04/22 01:24:21;;;;;;;14.93;2.63;;;6.50;66.70;;;;;;4897232;29;20037;-84
2021/04/22 01:26:47;;;;;;;21.98;3.20;;;6.50;66.70;;;;;;4898164;29;20036;-85
2021/04/22 01:29:13;;;;;;;20.50;3.30;;;6.40;66.70;;;;;;4898934;29;20032;-85
2021/04/22 01:31:39;;;;;;;15.50;2.83;;;6.40;66.80;;;;;;4897569;29;20482;-84
2021/04/22 01:34:08;;;;;;;17.80;2.80;;;6.40;66.90;;;;;;4898577;29;20035;-85
2021/04/22 01:36:36;;;;;;;14.80;2.70;;;6.40;67.10;;;;;;4897761;29;20029;-85
2021/04/22 01:39:06;;;;;;;16.40;2.92;;;6.30;67.20;;;;;;4898936;29;20404;-85
2021/04/22 01:41:32;;;;;;;22.38;2.95;;;6.30;67.40;;;;;;4908772;29;20501;-85
2021/04/22 01:43:58;;;;;;;18.50;3.35;;;6.30;67.40;;;;;;4917539;29;20068;-85
2021/04/22 01:46:24;;;;;;;19.10;2.92;;;6.20;67.40;;;;;;4912591;29;20494;-85
2021/04/22 01:48:50;;;;;;;17.20;3.30;;;6.20;67.70;;;;;;4898619;29;20379;-85
2021/04/22 01:51:16;;;;;;;21.45;3.20;;;6.10;67.80;;;;;;4898395;29;20813;-85
2021/04/22 01:53:41;;;;;;;19.05;3.53;;;6.10;67.90;;;;;;4881719;29;20060;-85
2021/04/22 01:56:07;;;;;;;21.38;2.92;;;6.10;67.90;;;;;;4898295;29;20052;-85
2021/04/22 01:58:33;;;;;;;27.25;3.80;;;6.10;68.60;;;;;;4897059;29;20036;-85
2021/04/22 02:01:00;;;;;;;16.33;3.33;;;6.00;68.10;;;;;;4897268;29;20033;-85
2021/04/22 02:03:31;;;;;;;18.55;2.78;;;6.00;68.20;;;;;;4904038;29;20106;-85
2021/04/22 02:05:57;;;;;;;24.20;3.30;;;6.00;68.40;;;;;;4917138;29;20028;-85
2021/04/22 02:08:23;;;;;;;16.70;3.25;;;6.00;68.60;;;;;;4911213;29;20021;-85
2021/04/22 02:10:49;;;;;;;19.45;3.20;;;6.00;68.90;;;;;;4898243;29;20035;-85
2021/04/22 02:13:16;;;;;;;19.75;3.63;;;6.00;68.90;;;;;;4880552;29;20037;-85
2021/04/22 02:15:44;;;;;;;16.10;3.42;;;6.00;68.90;;;;;;4896959;29;20152;-85
2021/04/22 02:18:10;;;;;;;17.02;3.40;;;5.90;68.90;;;;;;4912854;29;20055;-85
2021/04/22 02:20:35;;;;;;;22.23;4.63;;;5.90;69.20;;;;;;4917079;29;20047;-85
2021/04/22 02:23:02;;;;;;;25.83;4.15;;;5.90;69.30;;;;;;4900101;29;20123;-85
2021/04/22 02:25:29;;;;;;;21.13;3.58;;;5.90;69.40;;;;;;4917166;29;20036;-86
2021/04/22 02:27:56;;;;;;;28.05;4.22;;;5.90;69.50;;;;;;4904611;29;20145;-85
2021/04/22 02:30:27;;;;;;;20.92;3.78;;;5.80;69.50;;;;;;4896859;29;20436;-85
2021/04/22 02:32:54;;;;;;;18.88;3.70;;;5.90;69.70;;;;;;4897701;29;20072;-85
2021/04/22 02:35:25;;;;;;;21.05;4.57;;;5.80;69.60;;;;;;4898479;29;20029;-78
2021/04/22 02:37:51;;;;;;;15.25;3.20;;;5.80;69.90;;;;;;4898021;29;20063;-79
2021/04/22 02:40:20;;;;;;;21.52;3.95;;;5.70;69.90;;;;;;4899938;29;20053;-79
2021/04/22 02:42:46;;;;;;;26.65;3.97;;;5.70;70.00;;;;;;4916055;29;20115;-78
2021/04/22 02:45:19;;;;;;;20.20;3.70;;;5.70;70.10;;;;;;4898158;29;20128;-79
2021/04/22 02:47:45;;;;;;;18.88;3.63;;;5.70;70.30;;;;;;4897792;29;20032;-79
2021/04/22 02:50:14;;;;;;;13.75;3.25;;;5.70;70.30;;;;;;4903906;29;20028;-79
2021/04/22 02:52:40;;;;;;;16.40;3.42;;;5.70;70.30;;;;;;4899033;29;20537;-79
2021/04/22 02:55:07;;;;;;;28.08;4.00;;;5.60;70.30;;;;;;4916602;29;20040;-79
2021/04/22 02:57:33;;;;;;;23.55;3.97;;;5.60;70.40;;;;;;4901188;29;20025;-79
2021/04/22 02:59:59;;;;;;;21.13;4.13;;;5.60;70.40;;;;;;4884823;29;20032;-79
2021/04/22 03:02:25;;;;;;;18.23;3.53;;;5.60;70.50;;;;;;4901269;29;20041;-78
2021/04/22 03:04:50;;;;;;;18.33;3.45;;;5.50;70.50;;;;;;4901075;29;20080;-78
2021/04/22 03:07:16;;;;;;;23.02;3.60;;;5.50;70.80;;;;;;4901463;29;20028;-79
2021/04/22 03:09:41;;;;;;;21.40;3.45;;;5.50;70.90;;;;;;4901124;29;20035;-78
2021/04/22 03:12:08;;;;;;;16.38;3.85;;;5.40;70.90;;;;;;4918850;29;20067;-79
2021/04/22 03:14:34;;;;;;;19.70;3.85;;;5.40;71.20;;;;;;4913705;29;20129;-78
2021/04/22 03:17:00;;;;;;;21.15;4.10;;;5.40;71.40;;;;;;4900932;29;20134;-79
2021/04/22 03:19:26;;;;;;;27.85;4.00;;;5.40;71.40;;;;;;4891318;29;20493;-79
2021/04/22 03:21:51;;;;;;;25.02;4.38;;;5.30;71.40;;;;;;4919756;29;20127;-78
2021/04/22 03:24:17;;;;;;;21.85;3.95;;;5.30;71.50;;;;;;4909670;29;20048;-78
2021/04/22 03:26:43;;;;;;;19.60;3.95;;;5.30;71.60;;;;;;4909584;29;20040;-78
2021/04/22 03:29:09;;;;;;;27.30;3.90;;;5.30;71.60;;;;;;4884265;29;20371;-79
2021/04/22 03:31:35;;;;;;;24.13;4.55;;;5.20;71.70;;;;;;4900792;29;20124;-79
2021/04/22 03:34:01;;;;;;;23.27;4.13;;;5.20;72.00;;;;;;4899480;29;20423;-79
2021/04/22 03:36:27;;;;;;;21.92;3.55;;;5.20;72.10;;;;;;4899490;29;20037;-78
2021/04/22 03:38:54;;;;;;;23.55;3.55;;;5.20;72.10;;;;;;4919374;29;20025;-78
2021/04/22 03:41:20;;;;;;;22.23;3.63;;;5.20;72.10;;;;;;4918450;29;20059;-79
2021/04/22 03:43:46;;;;;;;24.42;4.63;;;5.20;72.10;;;;;;4904207;29;20040;-79
2021/04/22 03:46:11;;;;;;;20.48;3.95;;;5.20;72.10;;;;;;4900677;29;20028;-79
2021/04/22 03:48:37;;;;;;;20.77;3.95;;;5.20;72.10;;;;;;4899514;29;20087;-79
2021/04/22 03:51:03;;;;;;;16.05;3.70;;;5.20;72.10;;;;;;4908206;29;20043;-79
2021/04/22 03:53:28;;;;;;;23.65;4.32;;;5.20;72.20;;;;;;4900457;29;20050;-79
2021/04/22 03:55:54;;;;;;;22.52;4.25;;;5.20;72.10;;;;;;4900558;29;20079;-79
2021/04/22 03:58:19;;;;;;;27.58;4.57;;;5.10;72.00;;;;;;4900194;29;20052;-79
2021/04/22 04:00:45;;;;;;;14.35;4.28;;;5.10;72.10;;;;;;4899945;29;20087;-79
2021/04/22 04:03:11;;;;;;;24.70;4.32;;;5.10;72.20;;;;;;4909909;29;20036;-79
2021/04/22 04:05:36;;;;;;;23.63;4.57;;;5.10;72.40;;;;;;4902107;29;20036;-78
2021/04/22 04:08:02;;;;;;;24.98;4.63;;;5.10;72.40;;;;;;4881563;29;20104;-78
2021/04/22 04:10:28;;;;;;;24.00;4.50;;;5.00;72.50;;;;;;4901370;29;20037;-78
2021/04/22 04:12:53;;;;;;;25.33;4.40;;;5.00;72.60;;;;;;4898748;29;20051;-79
2021/04/22 04:15:19;;;;;;;28.73;4.45;;;5.00;72.70;;;;;;4898609;29;20029;-78
2021/04/22 04:17:44;;;;;;;26.48;4.10;;;5.00;72.80;;;;;;4917386;29;20490;-78
2021/04/22 04:20:13;;;;;;;21.50;4.18;;;4.90;72.80;;;;;;4909010;29;20482;-78
2021/04/22 04:22:39;;;;;;;29.00;4.40;;;4.90;72.70;;;;;;4898607;29;20036;-79
2021/04/22 04:25:06;;;;;;;33.85;4.53;;;4.90;72.80;;;;;;4915456;29;20048;-79
2021/04/22 04:27:32;;;;;;;27.27;4.57;;;4.90;72.90;;;;;;4917437;29;20393;-79
2021/04/22 04:29:58;;;;;;;18.92;4.00;;;4.80;72.80;;;;;;4918685;29;20032;-78
2021/04/22 04:32:23;;;;;;;29.05;4.45;;;4.80;72.90;;;;;;4918036;29;20139;-78
2021/04/22 04:34:49;;;;;;;24.02;4.18;;;4.80;73.00;;;;;;4898252;29;20486;-74
2021/04/22 04:37:15;;;;;;;23.65;4.95;;;4.80;73.00;;;;;;4911050;29;20032;-74
2021/04/22 04:39:40;;;;;;;23.98;5.57;;;4.80;73.20;;;;;;4910539;29;20466;-79
2021/04/22 04:42:06;;;;;;;19.27;5.10;;;4.80;73.20;;;;;;4908219;29;20040;-79
2021/04/22 04:44:33;;;;;;;32.35;5.50;;;4.80;73.20;;;;;;4911991;29;20032;-79
2021/04/22 04:46:58;;;;;;;21.13;5.18;;;4.80;73.30;;;;;;4910334;29;20056;-79
2021/04/22 04:49:24;;;;;;;31.48;5.35;;;4.90;73.40;;;;;;4899741;29;20061;-79
2021/04/22 04:51:50;;;;;;;19.17;4.68;;;4.90;73.40;;;;;;4899358;29;20439;-78
2021/04/22 04:54:15;;;;;;;24.73;4.53;;;5.00;73.40;;;;;;4899308;29;20111;-79
2021/04/22 04:56:41;;;;;;;21.33;4.80;;;5.00;73.30;;;;;;4907845;29;20367;-79
2021/04/22 04:59:07;;;;;;;24.42;4.55;;;5.10;73.50;;;;;;4916899;29;20028;-79
2021/04/22 05:01:32;;;;;;;24.80;5.20;;;5.20;73.40;;;;;;4918329;29;20513;-79
2021/04/22 05:03:58;;;;;;;22.90;5.03;;;5.20;73.30;;;;;;4902479;29;20116;-79
2021/04/22 05:06:24;;;;;;;19.73;4.45;;;5.30;73.20;;;;;;4899725;29;20044;-79
2021/04/22 05:08:49;;;;;;;27.65;5.38;;;5.30;73.10;;;;;;4898089;29;20414;-79
2021/04/22 05:11:15;;;;;;;23.10;5.13;;;5.40;72.90;;;;;;4899088;29;20037;-78
2021/04/22 05:13:40;;;;;;;35.75;5.35;;;5.50;72.80;;;;;;4899072;29;20033;-79
2021/04/22 05:16:07;;;;;;;19.77;5.35;;;5.50;72.60;;;;;;4897723;29;20033;-79
2021/04/22 05:18:33;;;;;;;16.95;4.20;;;5.60;72.70;;;;;;4903992;29;20049;-78
2021/04/22 05:20:58;;;;;;;19.23;5.13;;;5.70;72.60;;;;;;4900054;29;20079;-79
2021/04/22 05:23:24;;;;;;;26.30;5.10;;;5.70;72.30;;;;;;4897648;29;20040;-78
2021/04/22 05:25:49;;;;;;;22.35;4.85;;;5.80;72.10;;;;;;4897649;29;20028;-78
2021/04/22 05:28:15;;;;;;;27.98;5.43;;;5.80;71.90;;;;;;4903837;29;20039;-74
2021/04/22 05:30:42;;;;;;;20.35;4.90;;;5.90;71.60;;;;;;4900895;29;20064;-74
2021/04/22 05:33:08;;;;;;;26.38;5.10;;;6.00;71.40;;;;;;4896595;29;20127;-74
2021/04/22 05:35:35;;;;;;;19.48;5.18;;;6.00;71.20;;;;;;4909894;29;20115;-74
2021/04/22 05:38:00;;;;;;;20.83;4.72;;;6.00;71.10;;;;;;4915120;29;20142;-74
2021/04/22 05:40:26;;;;;;;19.85;4.70;;;6.10;71.00;;;;;;4904813;29;20419;-74
2021/04/22 05:42:51;;;;;;;22.58;5.00;;;6.20;70.80;;;;;;4899662;29;20036;-74
2021/04/22 05:45:18;;;;;;;17.55;4.72;;;6.20;70.50;;;;;;4899605;29;20044;-74
2021/04/22 05:47:47;;;;;;;19.65;4.78;;;6.30;70.40;;;;;;4916657;29;20064;-74
2021/04/22 05:50:15;;;;;;;18.85;4.50;;;6.40;70.20;;;;;;4897910;29;20080;-74
2021/04/22 05:52:41;;;;;;;19.67;4.63;;;6.40;70.00;;;;;;4896682;29;20525;-73
2021/04/22 05:55:08;;;;;;;27.30;5.30;;;6.40;69.90;;;;;;4897824;29;20541;-74
2021/04/22 05:57:34;;;;;;;26.08;4.57;;;6.50;69.90;;;;;;4898000;29;20084;-74
2021/04/22 05:59:59;;;;;;;25.70;5.18;;;6.50;69.70;;;;;;4902264;29;20059;-74
2021/04/22 06:02:25;;;;;;;22.67;4.68;;;6.60;69.70;;;;;;4916926;29;20032;-74
2021/04/22 06:04:51;;;;;;;20.30;5.50;;;6.60;69.30;;;;;;4901259;29;20071;-74
2021/04/22 06:07:17;;;;;;;18.38;5.28;;;6.70;69.00;;;;;;4897666;29;20095;-74
2021/04/22 06:09:43;;;;;;;24.95;5.82;;;6.60;68.70;;;;;;4897526;29;20040;-74
2021/04/22 06:12:09;;;;;;;21.88;5.20;;;6.70;69.00;;;;;;4897554;29;20040;-74
2021/04/22 06:14:35;;;;;;;22.35;5.00;;;6.70;68.90;;;;;;4896482;29;20103;-74
2021/04/22 06:17:00;;;;;;;22.38;4.93;;;6.70;69.00;;;;;;4900421;29;20575;-74
2021/04/22 06:19:26;;;;;;;23.42;4.50;;;6.70;68.70;;;;;;4897187;29;20490;-74
2021/04/22 06:21:52;;;;;;;19.83;4.82;;;6.70;68.50;;;;;;4897282;29;20462;-74
2021/04/22 06:24:17;;;;;;;24.85;4.80;;;6.80;68.70;;;;;;4897633;29;20048;-74
2021/04/22 06:26:44;;;;;;;25.50;4.65;;;6.90;68.00;;;;;;4896884;29;20036;-74
2021/04/22 06:29:10;;;;;;;20.20;4.72;;;7.00;67.70;;;;;;4897848;29;20037;-74
2021/04/22 06:31:37;;;;;;;15.27;4.00;;;7.00;67.30;;;;;;4897465;29;20482;-74
2021/04/22 06:34:03;;;;;;;25.23;4.60;;;7.20;67.00;;;;;;4901214;29;20152;-74
2021/04/22 06:36:29;;;;;;;19.30;4.32;;;7.20;66.30;;;;;;4900116;29;20037;-74
2021/04/22 06:38:55;;;;;;;21.40;4.47;;;7.20;65.60;;;;;;4901990;29;20040;-85
2021/04/22 06:41:21;;;;;;;19.08;4.35;;;7.20;65.30;;;;;;4912172;29;20036;-87
2021/04/22 06:43:46;;;;;;;18.23;4.22;;;7.20;65.60;;;;;;4908697;29;20038;-87
2021/04/22 06:46:12;;;;;;;18.65;4.05;;;7.40;65.70;;;;;;4902995;29;20116;-85
2021/04/22 06:48:38;;;;;;;29.42;5.13;;;7.50;65.30;;;;;;4907115;29;20140;-88
2021/04/22 06:51:06;;;;;;;26.50;4.63;;;7.60;64.20;;;;;;4901531;29;20080;-87
2021/04/22 06:53:31;;;;;;;19.05;4.15;;;7.60;63.50;;;;;;4900495;29;20116;-88
2021/04/22 06:55:58;;;;;;;18.55;4.15;;;7.60;63.40;;;;;;4901662;29;20112;-88
2021/04/22 06:58:24;;;;;;;22.73;3.90;;;7.60;63.30;;;;;;4901577;29;20095;-88
2021/04/22 07:00:50;;;;;;;18.33;4.65;;;7.60;62.80;;;;;;4905381;29;20119;-88
2021/04/22 07:03:15;;;;;;;23.90;3.55;;;7.70;63.10;;;;;;4899742;29;20037;-88
2021/04/22 07:05:41;;;;;;;19.95;3.47;;;7.80;62.80;;;;;;4900920;29;20092;-88
2021/04/22 07:08:07;;;;;;;23.73;3.97;;;8.00;61.60;;;;;;4900242;29;20044;-88
2021/04/22 07:10:35;;;;;;;23.70;3.85;;;8.10;61.60;;;;;;4901365;29;20029;-88
2021/04/22 07:13:01;;;;;;;20.42;3.35;;;8.20;60.70;;;;;;4901233;29;20534;-88
2021/04/22 07:15:27;;;;;;;15.52;3.55;;;8.30;60.50;;;;;;4900082;29;20124;-88
2021/04/22 07:17:52;;;;;;;14.00;2.92;;;8.50;60.30;;;;;;4900050;29;20052;-88
2021/04/22 07:20:21;;;;;;;16.35;3.13;;;8.60;58.50;;;;;;4901077;29;20127;-87
2021/04/22 07:22:46;;;;;;;11.88;2.65;;;8.80;57.90;;;;;;4901280;29;20553;-88
2021/04/22 07:25:13;;;;;;;15.55;2.50;;;8.90;57.00;;;;;;4900935;29;20044;-88
2021/04/22 07:27:41;;;;;;;12.40;2.95;;;8.90;56.80;;;;;;4901038;29;20047;-87
2021/04/22 07:30:08;;;;;;;16.80;2.95;;;9.00;56.80;;;;;;4901388;29;20092;-88
2021/04/22 07:32:34;;;;;;;15.85;2.78;;;9.00;56.90;;;;;;4919667;29;20120;-87
2021/04/22 07:35:00;;;;;;;20.65;3.08;;;9.20;56.90;;;;;;4919755;29;20024;-87
2021/04/22 07:37:26;;;;;;;19.10;2.55;;;9.30;55.60;;;;;;4918611;29;20389;-87
2021/04/22 07:39:52;;;;;;;19.48;2.60;;;9.40;55.50;;;;;;4919842;29;20033;-88
2021/04/22 07:42:18;;;;;;;21.10;3.00;;;9.40;55.10;;;;;;4919631;29;20036;-88
2021/04/22 07:44:47;;;;;;;15.93;3.08;;;9.40;54.20;;;;;;4919334;29;20088;-87
2021/04/22 07:47:14;;;;;;;13.63;2.42;;;9.40;54.10;;;;;;4881963;29;20032;-87
2021/04/22 07:49:39;;;;;;;19.13;2.72;;;9.50;53.80;;;;;;4880799;29;20402;-87
2021/04/22 07:52:06;;;;;;;16.17;2.67;;;9.50;53.80;;;;;;4881765;29;20029;-88
2021/04/22 07:54:31;;;;;;;25.55;2.92;;;9.60;54.30;;;;;;4882448;29;20047;-88
2021/04/22 07:56:57;;;;;;;14.73;2.90;;;9.80;54.60;;;;;;4900515;29;20478;-87
2021/04/22 07:59:23;;;;;;;20.40;3.15;;;10.00;53.20;;;;;;4899477;29;20032;-88
2021/04/22 08:01:49;;;;;;;17.50;2.95;;;10.10;52.90;;;;;;4900492;29;20055;-88
2021/04/22 08:04:14;;;;;;;12.00;2.95;;;10.00;52.30;;;;;;4899293;29;20497;-86
2021/04/22 08:06:40;;;;;;;10.85;2.45;;;10.10;52.70;;;;;;4899216;29;20039;-88
2021/04/22 08:09:06;;;;;;;18.77;2.30;;;10.20;52.60;;;;;;4899290;29;20039;-88
2021/04/22 08:11:32;;;;;;;15.07;2.60;;;10.30;52.80;;;;;;4900183;29;20033;-88
2021/04/22 08:13:57;;;;;;;17.70;3.13;;;10.50;52.20;;;;;;4900123;29;20394;-88
2021/04/22 08:16:23;;;;;;;17.83;2.83;;;10.70;51.30;;;;;;4900101;29;20036;-88
2021/04/22 08:18:49;;;;;;;10.38;1.80;;;10.80;51.50;;;;;;4898715;29;20049;-89
2021/04/22 08:21:15;;;;;;;17.65;2.75;;;11.00;50.90;;;;;;4906972;29;20549;-88
2021/04/22 08:23:41;;;;;;;12.10;2.30;;;11.20;50.60;;;;;;4899964;29;20040;-88
2021/04/22 08:26:09;;;;;;;14.63;2.47;;;11.20;50.30;;;;;;4898824;29;20116;-90
2021/04/22 08:28:36;;;;;;;7.33;1.93;;;11.10;50.20;;;;;;4898763;29;20020;-82
2021/04/22 08:31:02;;;;;;;15.23;2.47;;;10.90;50.80;;;;;;4899685;29;20608;-84
2021/04/22 08:33:30;;;;;;;13.40;2.20;;;10.90;52.20;;;;;;4899880;29;20084;-83
2021/04/22 08:35:55;;;;;;;12.30;2.50;;;11.10;52.30;;;;;;4899650;29;20096;-83
2021/04/22 08:38:21;;;;;;;12.65;2.35;;;11.40;52.20;;;;;;4899674;29;20506;-85
2021/04/22 08:40:49;;;;;;;12.07;2.13;;;11.60;51.30;;;;;;4906207;29;20020;-84
2021/04/22 08:43:16;;;;;;;14.98;2.45;;;11.80;50.30;;;;;;4901603;29;20516;-85
2021/04/22 08:45:42;;;;;;;11.18;2.17;;;11.90;49.70;;;;;;4899501;29;20398;-86
2021/04/22 08:48:08;;;;;;;18.55;2.60;;;12.00;49.10;;;;;;4899204;29;20092;-85
2021/04/22 08:50:35;;;;;;;12.30;2.80;;;12.10;49.00;;;;;;4898222;29;20034;-86
2021/04/22 08:53:06;;;;;;;12.32;2.55;;;12.20;48.30;;;;;;4899086;29;20425;-84
2021/04/22 08:55:33;;;;;;;10.93;2.35;;;12.10;47.90;;;;;;4898533;29;20021;-84
2021/04/22 08:58:03;;;;;;;14.65;2.67;;;12.10;47.90;;;;;;4917101;29;20032;-83
2021/04/22 09:00:32;;;;;;;9.02;2.30;;;12.10;47.70;;;;;;4908646;29;20060;-84
2021/04/22 09:02:57;;;;;;;17.35;3.10;;;11.90;48.20;;;;;;4898963;29;20430;-83
2021/04/22 09:05:24;;;;;;;16.15;2.63;;;11.70;48.70;;;;;;4898206;29;20128;-84
2021/04/22 09:07:50;;;;;;;14.68;2.80;;;11.80;48.90;;;;;;4898076;29;20083;-83
2021/04/22 09:10:20;;;;;;;17.33;3.08;;;12.10;48.90;;;;;;4899100;29;20112;-83
2021/04/22 09:12:56;;;;;;;13.00;2.53;;;12.30;48.40;;;;;;4899042;29;20453;-85
2021/04/22 09:15:22;;;;;;;9.05;2.05;;;12.40;47.70;;;;;;4899291;29;20025;-83
2021/04/22 09:17:56;;;;;;;14.73;2.92;;;12.50;47.90;;;;;;4899121;29;20120;-84
2021/04/22 09:20:30;;;;;;;12.77;2.55;;;12.60;46.90;;;;;;4908087;29;20071;-83
2021/04/22 09:22:56;;;;;;;13.57;2.90;;;12.40;47.00;;;;;;4917849;29;20020;-85
2021/04/22 09:25:25;;;;;;;16.05;2.67;;;12.30;47.90;;;;;;4906739;29;20032;-83
2021/04/22 09:27:55;;;;;;;21.65;3.03;;;12.30;48.10;;;;;;4905922;29;20052;-85
2021/04/22 09:30:32;;;;;;;10.15;2.38;;;12.40;48.30;;;;;;4900701;29;20032;-85
2021/04/22 09:32:58;;;;;;;8.93;2.55;;;12.70;47.30;;;;;;4900464;29;20032;-84
2021/04/22 09:35:25;;;;;;;11.60;2.53;;;12.90;46.90;;;;;;4900524;29;20051;-83
2021/04/22 09:37:53;;;;;;;15.50;3.15;;;13.10;46.20;;;;;;4904848;29;20028;-83
2021/04/22 09:40:34;;;;;;;11.90;2.45;;;13.30;44.80;;;;;;4900426;29;20033;-83
2021/04/22 09:43:04;;;;;;;13.40;2.72;;;13.30;45.00;;;;;;4898645;29;20136;-83
2021/04/22 09:45:31;;;;;;;12.45;3.05;;;13.20;45.30;;;;;;4898660;29;20067;-84
2021/04/22 09:47:58;;;;;;;19.27;3.05;;;12.90;45.60;;;;;;4898383;29;20040;-82
2021/04/22 09:50:26;;;;;;;12.15;2.50;;;12.90;46.10;;;;;;4912283;29;20036;-84
2021/04/22 09:52:55;;;;;;;9.13;2.45;;;12.80;46.40;;;;;;4898418;29;20156;-84
2021/04/22 09:55:31;;;;;;;11.98;2.72;;;12.90;46.40;;;;;;4899119;29;20033;-83
2021/04/22 09:57:57;;;;;;;9.95;2.78;;;13.00;45.50;;;;;;4898555;29;20035;-83
2021/04/22 10:00:30;;;;;;;15.98;2.72;;;13.10;45.80;;;;;;4898369;29;20099;-84
2021/04/22 10:03:00;;;;;;;9.63;2.63;;;13.30;44.60;;;;;;4898266;29;20017;-83
2021/04/22 10:05:31;;;;;;;11.05;2.65;;;13.30;44.90;;;;;;4898235;29;20088;-84
2021/04/22 10:08:16;;;;;;;9.65;2.15;;;13.50;44.30;;;;;;4898178;29;20048;-84
2021/04/22 10:10:54;;;;;;;14.35;2.60;;;13.60;44.60;;;;;;4879334;29;20448;-83
2021/04/22 10:13:20;;;;;;;10.80;2.78;;;13.70;45.00;;;;;;4878317;29;20033;-83
2021/04/22 10:15:50;;;;;;;11.63;2.60;;;13.80;43.80;;;;;;4879678;29;20036;-81
2021/04/22 10:18:16;;;;;;;10.32;2.70;;;13.80;44.20;;;;;;4879636;29;20033;-81
2021/04/22 10:20:42;;;;;;;11.85;2.75;;;14.10;44.40;;;;;;4879377;29;20495;-81
2021/04/22 10:23:09;;;;;;;12.60;2.53;;;14.40;43.50;;;;;;4879645;29;20085;-81
2021/04/22 10:25:40;;;;;;;11.18;2.47;;;14.60;43.10;;;;;;4879417;29;20048;-81
2021/04/22 10:28:15;;;;;;;12.13;2.90;;;14.70;43.30;;;;;;4880229;29;20031;-81
2021/04/22 10:30:47;;;;;;;12.55;2.42;;;14.80;43.00;;;;;;4909127;29;20028;-80
2021/04/22 10:33:13;;;;;;;12.23;2.80;;;15.10;42.60;;;;;;4916862;29;20051;-81
2021/04/22 10:35:41;;;;;;;12.98;2.45;;;15.00;41.70;;;;;;4915513;29;20482;-81
2021/04/22 10:38:08;;;;;;;12.68;2.45;;;14.90;41.40;;;;;;4915517;29;20085;-81
2021/04/22 10:40:36;;;;;;;15.13;2.72;;;14.90;41.80;;;;;;4917410;29;20116;-81
2021/04/22 10:43:05;;;;;;;14.63;2.67;;;15.00;42.20;;;;;;4917007;29;20024;-81
2021/04/22 10:45:32;;;;;;;12.05;2.20;;;15.20;41.80;;;;;;4916968;29;20383;-81
2021/04/22 10:47:58;;;;;;;12.52;2.80;;;15.30;40.90;;;;;;4878100;29;20499;-81
2021/04/22 10:50:27;;;;;;;7.72;2.33;;;15.30;41.30;;;;;;4889658;29;20071;-81
2021/04/22 10:52:54;;;;;;;9.00;2.05;;;15.40;41.40;;;;;;4897595;29;20044;-80
2021/04/22 10:55:27;;;;;;;12.57;2.40;;;15.50;40.90;;;;;;4896542;29;20025;-80
2021/04/22 10:57:55;;;;;;;11.68;2.58;;;15.60;40.60;;;;;;4896663;29;20087;-81
2021/04/22 11:00:25;;;;;;;7.80;2.05;;;15.60;41.10;;;;;;4896522;29;20120;-80
2021/04/22 11:02:55;;;;;;;12.80;2.70;;;15.90;41.10;;;;;;4897823;29;20055;-80
2021/04/22 11:05:30;;;;;;;15.32;2.67;;;15.90;40.20;;;;;;4896496;29;20459;-81
2021/04/22 11:08:06;;;;;;;11.63;2.90;;;15.90;40.30;;;;;;4897829;29;20032;-81
2021/04/22 11:10:34;;;;;;;14.50;2.92;;;15.90;40.00;;;;;;4897711;29;20033;-80
2021/04/22 11:13:08;;;;;;;14.20;3.10;;;15.80;40.00;;;;;;4897823;29;20028;-81
2021/04/22 11:15:34;;;;;;;10.65;2.80;;;15.60;40.10;;;;;;4905378;29;20492;-81
2021/04/22 11:18:09;;;;;;;16.15;2.80;;;15.60;40.60;;;;;;4898106;29;20043;-81
2021/04/22 11:20:39;;;;;;;13.63;2.70;;;15.70;40.50;;;;;;4901069;29;20100;-80
2021/04/22 11:23:19;;;;;;;15.35;3.00;;;15.80;40.00;;;;;;4901124;29;20032;-81
2021/04/22 11:25:47;;;;;;;12.18;2.50;;;15.80;40.00;;;;;;4900984;29;20482;-82
2021/04/22 11:28:13;;;;;;;11.50;2.63;;;15.90;40.10;;;;;;4900831;29;20383;-82
2021/04/22 11:30:39;;;;;;;9.32;2.85;;;15.90;40.30;;;;;;4899703;29;20036;-81
2021/04/22 11:33:04;;;;;;;12.65;2.67;;;16.10;40.50;;;;;;4899786;29;20096;-82
2021/04/22 11:35:31;;;;;;;12.57;3.40;;;16.10;39.80;;;;;;4902679;29;20035;-83
2021/04/22 11:38:06;;;;;;;10.65;3.03;;;16.10;40.30;;;;;;4900815;29;20025;-82
2021/04/22 11:40:46;;;;;;;11.93;2.70;;;16.00;40.10;;;;;;4899451;29;20021;-82
2021/04/22 11:43:24;;;;;;;11.68;2.95;;;16.00;40.40;;;;;;4899479;29;20080;-82
2021/04/22 11:45:53;;;;;;;9.23;2.88;;;16.00;40.20;;;;;;4900641;29;20048;-82
2021/04/22 11:48:19;;;;;;;12.50;2.75;;;16.10;40.40;;;;;;4915139;29;20035;-82
2021/04/22 11:50:46;;;;;;;9.93;2.65;;;16.20;40.50;;;;;;4903346;29;20444;-83
2021/04/22 11:53:13;;;;;;;7.93;2.88;;;16.30;39.90;;;;;;4899077;29;20492;-85
2021/04/22 11:55:54;;;;;;;14.00;3.00;;;16.40;40.20;;;;;;4900486;29;20158;-83
2021/04/22 11:58:21;;;;;;;12.32;2.72;;;16.70;40.00;;;;;;4900405;29;20048;-82
2021/04/22 12:00:56;;;;;;;9.15;2.67;;;16.90;40.00;;;;;;4899973;29;20025;-83
2021/04/22 12:03:33;;;;;;;18.40;3.42;;;17.20;39.40;;;;;;4912956;29;20497;-82
2021/04/22 12:06:02;;;;;;;21.48;3.65;;;17.20;38.00;;;;;;4917805;29;20052;-82
2021/04/22 12:08:38;;;;;;;;;;;17.10;38.30;;;;;;4918385;29;20028;-82
2021/04/22 12:11:07;;;;;;;13.18;3.40;;;17.10;38.20;;;;;;4918982;29;20292;-82
2021/04/22 12:13:34;;;;;;;;;;;17.20;38.40;;;;;;4919379;29;20059;-82
2021/04/22 12:16:02;;;;;;;13.65;2.75;;;17.30;38.50;;;;;;4918524;29;19915;-82
2021/04/22 12:18:29;;;;;;;10.73;2.58;;;17.50;38.50;;;;;;4910920;29;20040;-82
2021/04/22 12:21:08;;;;;;;12.23;3.17;;;17.70;37.90;;;;;;4899927;29;20059;-82
2021/04/22 12:23:37;;;;;;;12.70;3.22;;;17.80;37.10;;;;;;4900030;29;20040;-82
2021/04/22 12:26:23;;;;;;;10.80;3.10;;;17.60;36.90;;;;;;4899508;29;20039;-82
2021/04/22 12:28:58;;;;;;;16.20;3.50;;;17.60;37.30;;;;;;4898229;29;20061;-82
2021/04/22 12:31:30;;;;;;;13.68;3.45;;;17.60;37.40;;;;;;4897219;29;20501;-82
2021/04/22 12:34:09;;;;;;;11.13;3.55;;;17.60;37.30;;;;;;4915056;29;20390;-82
2021/04/22 12:36:36;;;;;;;13.85;3.53;;;17.80;37.50;;;;;;4918123;29;20351;-82
2021/04/22 12:39:05;;;;;;;12.70;3.55;;;18.00;36.90;;;;;;4917018;29;20485;-82
2021/04/22 12:41:31;;;;;;;14.15;3.95;;;18.20;36.80;;;;;;4918334;29;20039;-82
2021/04/22 12:43:57;;;;;;;11.73;3.08;;;18.30;36.90;;;;;;4918027;29;20036;-83